Stations météo

réclame
Mon MeteoGroup
Wilhelminadorp aws, Pays-Bas (6323): Température de l'air & dewpoint: 18.01.2018 10:00:00 - 24.01.2018 10:00:00 (CET)Wilhelminadorp aws, Pays-Bas (6323): Température de l'air 5cm & Température de l'air -5cm: 18.01.2018 10:00:00 - 24.01.2018 10:00:00 (CET)Wilhelminadorp aws, Pays-Bas (6323): Température de l'air -20cm & Température de l'air -100cm: 18.01.2018 10:00:00 - 24.01.2018 10:00:00 (CET)Wilhelminadorp aws, Pays-Bas (6323): Vitesse du vent & gusts: 18.01.2018 10:00:00 - 24.01.2018 10:00:00 (CET)Wilhelminadorp aws, Pays-Bas (6323): Direction du vent: 18.01.2018 10:00:00 - 24.01.2018 10:00:00 (CET)Wilhelminadorp aws, Pays-Bas (6323): reduced air pressure: 18.01.2018 10:00:00 - 24.01.2018 10:00:00 (CET)Wilhelminadorp aws, Pays-Bas (6323): Quantités de précipitations: 18.01.2018 10:00:00 - 24.01.2018 10:00:00 (CET)
Date & Time tt [°C] td [°C] tt 5cm [°C] tt -5cm [°C] tt -20cm [°C] tt -100cm [°C] ff [km/h] ff [knt] fx [km/h] fx [knt] dd ppp [hPa] rr [mm]
24.01.2018 10:00:00 12,8 10,7 12,2 7,2 6,8 7,0 36 19 58 31 SSW 1012,2 0,0
24.01.2018 09:00:00 12,2 10,7 11,6 7,2 6,7 7,0 32 18 47 25 SSW 1013,0 0,0
24.01.2018 08:00:00 11,9 10,6 11,4 7,1 6,7 7,0 29 16 47 25 SSW 1013,7 0,0
24.01.2018 07:00:00 11,9 10,6 11,4 7,0 6,6 7,0 29 16 47 25 SSW 1014,4 0,0
24.01.2018 06:00:00 11,7 10,9 11,2 6,9 6,5 7,0 25 14 40 21 SSW 1014,7 0,1
24.01.2018 05:00:00 11,4 11,1 11,1 6,9 6,5 7,0 22 12 32 18 SSW 1015,4 0,2
24.01.2018 04:00:00 11,3 11,0 11,1 6,8 6,4 7,0 22 12 36 19 SSW 1016,0 0,0
24.01.2018 03:00:00 11,4 10,7 11,2 6,7 6,4 7,0 22 12 32 18 SSW 1016,5 0,0
24.01.2018 02:00:00 11,6 10,5 11,1 6,7 6,3 7,0 22 12 36 19 SW 1016,8 0,0
24.01.2018 01:00:00 11,5 10,8 11,0 6,6 6,2 7,0 22 12 36 19 SSW 1017,2 0,1
24.01.2018 00:00:00 11,1 10,7 10,9 6,5 6,2 7,0 25 14 40 21 SW 1016,9 0,3
23.01.2018 23:00:00 11,2 10,3 10,7 6,4 6,1 7,0 25 14 43 23 SW 1016,8 0,0
23.01.2018 22:00:00 11,0 10,1 10,3 6,3 6,1 7,0 29 16 47 25 SW 1016,7 0,0
23.01.2018 21:00:00 10,2 9,3 9,7 6,3 6,0 7,0 25 14 43 23 SSW 1016,7 0,0
23.01.2018 20:00:00 9,7 9,0 9,3 6,2 6,0 7,0 25 14 47 25 SSW 1016,6 0,0
23.01.2018 19:00:00 9,6 8,6 9,3 6,1 5,9 7,0 29 16 47 25 SSW 1016,8 0,0
23.01.2018 18:00:00 9,4 8,5 9,1 6,1 5,9 7,0 29 16 50 27 SSW 1017,0 0,0
23.01.2018 17:00:00 9,2 8,5 9,0 6,0 5,8 7,0 29 16 47 25 SSW 1016,9 0,0
23.01.2018 16:00:00 9,2 7,9 8,9 5,9 5,8 7,0 25 14 40 21 SSW 1017,2 0,1
23.01.2018 15:00:00 9,1 7,4 8,8 5,8 5,7 7,0 25 14 43 23 SSW 1017,6 0,0
23.01.2018 14:00:00 8,9 7,1 8,7 5,7 5,6 7,0 29 16 43 23 SSW 1018,0 0,3
23.01.2018 13:00:00 9,5 6,2 9,2 5,6 5,6 7,0 29 16 50 27 SSW 1018,6 0,0
23.01.2018 12:00:00 9,7 6,3 9,7 5,4 5,5 7,0 29 16 40 21 S 1019,2 0,0
23.01.2018 11:00:00 8,5 5,8 8,1 5,3 5,5 7,0 22 12 36 19 SSW 1019,9 0,0
23.01.2018 10:00:00 7,7 5,9 7,4 5,3 5,5 7,0 22 12 32 18 SSW 1020,0 0,0
23.01.2018 09:00:00 7,3 5,2 6,7 5,2 5,5 7,0 18 10 32 18 S 1020,0 0,0
23.01.2018 08:00:00 6,9 4,6 6,2 5,2 5,5 7,0 14 8 29 16 SSW 1019,9 0,0
23.01.2018 07:00:00 6,1 4,1 5,6 5,2 5,5 7,0 14 8 22 12 SSW 1020,2 0,0
23.01.2018 06:00:00 5,8 3,9 5,2 5,2 5,6 7,0 14 8 22 12 S 1020,1 0,0
23.01.2018 05:00:00 5,3 3,5 4,4 5,2 5,6 7,0 11 6 22 12 SSW 1020,0 0,0
23.01.2018 04:00:00 4,7 3,3 3,1 5,3 5,6 7,0 7 4 18 10 S 1020,0 0,0
23.01.2018 03:00:00 5,0 3,6 4,0 5,3 5,7 7,0 14 8 18 10 SW 1020,0 0,0
23.01.2018 02:00:00 5,4 4,0 4,3 5,4 5,7 7,0 14 8 22 12 WSW 1019,8 0,0
23.01.2018 01:00:00 5,3 3,9 3,9 5,5 5,7 7,0 14 8 18 10 WSW 1019,7 0,0
23.01.2018 00:00:00 5,4 3,7 4,4 5,5 5,7 7,1 14 8 22 12 WSW 1018,9 0,0
22.01.2018 23:00:00 5,8 4,1 4,9 5,6 5,7 7,1 14 8 22 12 W 1018,2 0,0
22.01.2018 22:00:00 6,5 4,7 5,7 5,6 5,7 7,1 14 8 22 12 W 1017,5 0,0
22.01.2018 21:00:00 6,9 5,3 6,5 5,6 5,7 7,1 14 8 22 12 WSW 1016,7 0,0
22.01.2018 20:00:00 6,6 5,0 5,9 5,7 5,7 7,1 18 10 22 12 W 1016,2 0,0
22.01.2018 19:00:00 5,8 4,5 5,0 5,8 5,7 7,1 14 8 22 12 W 1015,4 0,0
22.01.2018 18:00:00 6,9 4,9 6,2 5,8 5,6 7,1 18 10 25 14 W 1014,4 0,0
22.01.2018 17:00:00 7,6 5,3 7,1 5,8 5,5 7,1 18 10 36 19 WNW 1013,1 0,0
22.01.2018 16:00:00 8,7 5,8 8,8 5,7 5,5 7,1 25 14 32 18 WNW 1011,9 0,0
22.01.2018 15:00:00 8,6 6,0 8,6 5,6 5,4 7,1 22 12 32 18 WNW 1010,4 0,0
22.01.2018 14:00:00 8,8 6,2 8,9 5,5 5,3 7,1 22 12 29 16 WNW 1009,6 0,0
22.01.2018 13:00:00 8,6 6,5 8,6 5,4 5,3 7,1 18 10 25 14 WNW 1009,1 0,0
22.01.2018 12:00:00 8,6 6,5 8,5 5,2 5,2 7,1 14 8 22 12 WNW 1008,7 0,0
22.01.2018 11:00:00 8,1 6,8 7,9 5,1 5,2 7,1 11 6 18 10 W 1008,1 0,0
22.01.2018 10:00:00 7,1 6,2 6,6 5,1 5,2 7,1 11 6 14 8 W 1007,5 0,0
22.01.2018 09:00:00 7,1 6,2 6,6 5,0 5,1 7,1 14 8 18 10 W 1007,0 0,0
22.01.2018 08:00:00 7,4 6,2 7,0 5,0 5,1 7,1 14 8 25 14 W 1006,5 0,0
22.01.2018 07:00:00 7,6 6,5 7,1 4,9 5,1 7,1 14 8 29 16 W 1005,9 0,0
22.01.2018 06:00:00 8,0 7,0 7,4 4,8 5,0 7,1 22 12 29 16 W 1005,7 0,0
22.01.2018 05:00:00 8,2 7,7 7,5 4,7 5,0 7,1 22 12 32 18 W 1005,5 0,1
22.01.2018 04:00:00 6,7 6,6 6,3 4,7 5,0 7,1 18 10 29 16 WSW 1005,4 0,5
22.01.2018 03:00:00 4,8 4,7 4,6 4,6 5,0 7,1 14 8 22 12 SSW 1005,2 0,4
22.01.2018 02:00:00 3,9 3,7 3,7 4,6 5,0 7,1 14 8 22 12 S 1005,7 0,1
22.01.2018 01:00:00 3,4 3,2 3,3 4,6 5,0 7,1 18 10 32 18 S 1006,2 0,1
22.01.2018 00:00:00 3,1 2,7 3,1 4,6 5,0 7,1 22 12 36 19 SSE 1006,7 0,1
21.01.2018 23:00:00 3,1 2,1 2,9 4,6 5,0 7,1 25 14 43 23 SSE 1007,7 0,3
21.01.2018 22:00:00 2,9 2,0 2,7 4,7 5,0 7,2 25 14 40 21 SSE 1008,8 1,5
21.01.2018 21:00:00 2,8 1,7 2,7 4,7 5,0 7,2 25 14 40 21 SSE 1010,4 1,1
21.01.2018 20:00:00 3,1 1,9 2,9 4,7 5,0 7,2 22 12 36 19 SSE 1012,0 0,2
21.01.2018 19:00:00 3,6 1,9 3,4 4,7 5,0 7,2 18 10 32 18 S 1012,8 0,0
21.01.2018 18:00:00 4,3 2,5 4,0 4,7 5,0 7,2 18 10 29 16 SSE 1013,5 0,0
21.01.2018 17:00:00 4,4 2,5 4,1 4,7 4,9 7,2 14 8 25 14 SSE 1014,3 0,0
21.01.2018 16:00:00 4,7 2,7 4,5 4,7 4,9 7,2 11 6 18 10 SSE 1015,3 0,0
21.01.2018 15:00:00 4,9 2,7 4,9 4,6 4,8 7,2 11 6 18 10 S 1015,6 0,0
21.01.2018 14:00:00 5,2 2,8 5,3 4,4 4,8 7,2 14 8 18 10 SSW 1016,2 0,0
21.01.2018 13:00:00 6,0 3,3 6,2 4,3 4,8 7,2 14 8 18 10 SW 1016,3 0,0
21.01.2018 12:00:00 4,2 2,7 4,0 4,2 4,8 7,2 7 4 11 6 SSW 1016,4 0,0
21.01.2018 11:00:00 3,6 2,0 3,1 4,1 4,8 7,2 7 4 14 8 SW 1016,3 0,0
21.01.2018 10:00:00 2,3 0,7 1,2 4,2 4,9 7,2 11 6 14 8 SW 1015,7 0,0
21.01.2018 09:00:00 1,0 0,2 0,1 4,2 4,9 7,2 7 4 11 6 WSW 1015,2 0,0
21.01.2018 08:00:00 0,7 -0,4 -1,3 4,3 5,0 7,2 11 6 14 8 WSW 1014,5 0,0
21.01.2018 07:00:00 1,1 -0,1 -0,9 4,3 5,0 7,2 7 4 14 8 WNW 1013,6 0,0
21.01.2018 06:00:00 1,4 -0,2 0,0 4,4 5,0 7,2 11 6 25 14 WNW 1013,0 0,0
21.01.2018 05:00:00 3,0 0,7 1,8 4,5 5,1 7,2 18 10 29 16 NW 1012,0 0,0
21.01.2018 04:00:00 2,8 0,4 1,4 4,5 5,1 7,2 14 8 22 12 NW 1010,9 0,0
21.01.2018 03:00:00 3,2 0,7 2,2 4,6 5,1 7,2 18 10 25 14 NW 1010,2 0,0
21.01.2018 02:00:00 2,4 1,4 1,2 4,7 5,1 7,2 11 6 29 16 WNW 1008,9 0,4
21.01.2018 01:00:00 2,6 2,0 1,8 4,7 5,1 7,2 11 6 29 16 W 1007,7 0,3
21.01.2018 00:00:00 3,2 2,2 2,8 4,7 5,2 7,2 18 10 25 14 WNW 1006,1 0,6
20.01.2018 23:00:00 3,1 2,7 2,9 4,8 5,2 7,2 11 6 14 8 NW 1005,2 0,0
20.01.2018 22:00:00 2,6 2,2 2,0 4,8 5,2 7,2 7 4 11 6 NW 1004,2 0,0
20.01.2018 21:00:00 3,0 2,4 2,7 4,8 5,2 7,2 7 4 11 6 N 1002,9 0,0
20.01.2018 20:00:00 2,6 2,2 1,6 4,9 5,2 7,2 7 4 7 4 NNE 1001,8 0,2
20.01.2018 19:00:00 3,2 2,9 3,1 4,9 5,2 7,2 4 2 7 4 NNE 1001,0 0,6
20.01.2018 18:00:00 3,4 2,6 3,2 4,9 5,1 7,2 7 4 11 6 ESE 999,9 0,0
20.01.2018 17:00:00 3,6 2,5 3,4 4,9 5,1 7,3 7 4 11 6 E 999,4 0,0
20.01.2018 16:00:00 3,6 2,4 3,7 4,8 5,1 7,3 7 4 14 8 SE 999,4 0,1
20.01.2018 15:00:00 3,9 2,6 4,0 4,7 5,0 7,3 11 6 14 8 SE 999,3 0,0
20.01.2018 14:00:00 4,0 3,1 4,4 4,6 5,0 7,3 11 6 14 8 SE 999,9 0,3
20.01.2018 13:00:00 3,8 3,4 3,9 4,5 5,0 7,3 7 4 14 8 SE 1001,2 0,7
20.01.2018 12:00:00 3,9 3,2 3,8 4,4 5,0 7,3 11 6 22 12 S 1002,5 0,6
20.01.2018 11:00:00 3,7 2,9 3,5 4,4 5,0 7,3 18 10 29 16 SSW 1003,3 0,0
20.01.2018 10:00:00 3,1 2,3 2,6 4,4 5,1 7,3 14 8 29 16 S 1003,6 0,0
20.01.2018 09:00:00 2,2 1,4 1,4 4,4 5,1 7,3 14 8 22 12 S 1004,2 0,0
20.01.2018 08:00:00 2,0 1,1 1,3 4,4 5,1 7,3 18 10 25 14 SSW 1004,9 0,0
20.01.2018 07:00:00 1,6 0,4 0,9 4,5 5,2 7,3 14 8 22 12 S 1005,8 0,0
20.01.2018 06:00:00 1,6 0,5 0,9 4,5 5,2 7,3 14 8 22 12 S 1006,3 0,0
20.01.2018 05:00:00 2,2 0,8 1,5 4,6 5,3 7,3 14 8 22 12 S 1007,0 0,0
20.01.2018 04:00:00 2,9 1,1 2,0 4,6 5,3 7,3 14 8 22 12 SW 1007,7 0,0
20.01.2018 03:00:00 2,6 0,9 1,8 4,7 5,3 7,3 14 8 25 14 SW 1008,3 0,0
20.01.2018 02:00:00 2,3 0,4 1,4 4,8 5,4 7,3 14 8 18 10 SSW 1008,4 0,0
20.01.2018 01:00:00 2,6 0,8 1,8 4,8 5,4 7,3 14 8 22 12 SW 1008,5 0,0
20.01.2018 00:00:00 2,7 0,7 1,4 4,9 5,4 7,3 11 6 14 8 SSW 1008,6 0,0
19.01.2018 23:00:00 3,3 0,7 2,5 4,9 5,4 7,3 11 6 22 12 W 1008,9 0,2
19.01.2018 22:00:00 3,8 1,1 3,3 5,0 5,5 7,3 11 6 18 10 SW 1008,6 0,0
19.01.2018 21:00:00 3,7 0,7 3,2 5,0 5,5 7,3 11 6 25 14 W 1008,8 0,0
19.01.2018 20:00:00 3,6 1,0 2,3 5,1 5,5 7,3 11 6 22 12 SSW 1008,6 0,0
19.01.2018 19:00:00 3,9 0,8 3,0 5,1 5,5 7,3 18 10 25 14 WSW 1008,8 0,0
19.01.2018 18:00:00 4,2 1,1 3,3 5,2 5,5 7,3 18 10 25 14 WSW 1008,6 0,0
19.01.2018 17:00:00 4,8 1,6 4,1 5,2 5,5 7,3 18 10 32 18 WSW 1008,6 0,0
19.01.2018 16:00:00 5,9 2,2 5,9 5,2 5,4 7,3 22 12 40 21 WSW 1008,6 0,0
19.01.2018 15:00:00 5,9 1,9 5,8 5,1 5,4 7,3 32 18 43 23 WSW 1008,5 0,0
19.01.2018 14:00:00 5,7 2,3 5,5 5,0 5,4 7,3 22 12 40 21 WSW 1008,9 0,5
19.01.2018 13:00:00 5,2 3,3 5,1 4,9 5,4 7,3 14 8 25 14 SW 1008,9 0,0
19.01.2018 12:00:00 5,2 3,1 5,8 4,8 5,4 7,3 14 8 25 14 SW 1009,0 0,0
19.01.2018 11:00:00 4,8 3,0 4,4 4,8 5,4 7,3 11 6 18 10 SSW 1008,9 0,0
19.01.2018 10:00:00 3,5 1,6 2,8 4,9 5,5 7,3 11 6 14 8 WSW 1008,6 0,0
19.01.2018 09:00:00 2,7 1,2 1,5 4,9 5,5 7,3 7 4 18 10 SW 1008,0 0,0
19.01.2018 08:00:00 3,3 1,4 2,3 5,0 5,5 7,3 14 8 29 16 WSW 1007,5 0,0
19.01.2018 07:00:00 3,9 1,2 3,0 5,0 5,5 7,3 18 10 29 16 W 1007,0 0,0
19.01.2018 06:00:00 4,2 1,7 3,7 5,1 5,6 7,3 22 12 29 16 W 1006,6 0,0
19.01.2018 05:00:00 4,3 2,0 3,6 5,1 5,6 7,3 22 12 32 18 W 1005,8 0,0
19.01.2018 04:00:00 4,4 2,1 3,9 5,1 5,6 7,3 25 14 40 21 W 1005,5 0,0
19.01.2018 03:00:00 4,6 2,5 3,8 5,2 5,6 7,3 25 14 36 19 W 1004,7 0,0
19.01.2018 02:00:00 4,0 1,9 3,5 5,2 5,7 7,3 25 14 50 27 W 1004,2 0,8
19.01.2018 01:00:00 3,8 2,8 3,1 5,3 5,7 7,3 14 8 18 10 WSW 1003,7 0,0
19.01.2018 00:00:00 3,9 2,7 3,1 5,3 5,7 7,3 14 8 29 16 W 1003,4 0,0
18.01.2018 23:00:00 4,2 2,5 3,4 5,4 5,7 7,3 29 16 50 27 WSW 1002,9 1,7
18.01.2018 22:00:00 4,1 2,8 3,5 5,4 5,8 7,3 14 8 22 12 SW 1002,3 0,0
18.01.2018 21:00:00 4,2 2,9 3,8 5,5 5,8 7,4 18 10 32 18 SW 1002,2 0,1
18.01.2018 20:00:00 5,1 2,9 4,1 5,5 5,8 7,4 11 6 14 8 S 1002,0 0,0
18.01.2018 19:00:00 4,9 2,5 3,5 5,6 5,8 7,4 7 4 22 12 SW 1001,7 0,0
18.01.2018 18:00:00 5,6 3,0 5,0 5,6 5,8 7,4 14 8 25 14 W 1002,1 0,0
18.01.2018 17:00:00 5,8 3,1 5,0 5,6 5,7 7,4 14 8 36 19 W 1002,1 0,1
18.01.2018 16:00:00 6,4 2,5 6,0 5,6 5,7 7,4 29 16 43 23 W 1001,9 0,0
18.01.2018 15:00:00 6,9 3,0 6,7 5,5 5,7 7,4 29 16 47 25 W 1001,3 0,0
18.01.2018 14:00:00 6,7 2,5 6,7 5,5 5,7 7,4 40 21 54 29 W 1001,2 0,0
18.01.2018 13:00:00 6,2 2,6 6,0 5,5 5,7 7,4 40 21 61 33 W 1000,5 0,0
18.01.2018 12:00:00 5,9 2,1 5,8 5,5 5,7 7,4 47 25 72 39 W 999,7 0,0
18.01.2018 11:00:00 6,1 2,0 5,9 5,5 5,6 7,4 58 31 97 53 W 997,5 0,0
18.01.2018 10:00:00 6,8 1,3 6,4 5,5 5,6 7,4 76 41 112 60 W 994,2 0,0

tt = Température de l'air
td = dewpoint
tt 5cm = Température de l'air 5cm
tt -5cm = Température de l'air -5cm
tt -20cm = Température de l'air -20cm
tt -100cm = Température de l'air -100cm
ff = Vitesse du vent
fx = gusts
dd = Direction du vent
ppp = reduced air pressure
rr = Quantités de précipitations

stations d'obs. à proximité